Time;durP1;ratioP1;P1;durP2;ratioP2;P2;SDS_P1;SDS_P2;PMS_P1;PMS_P2;Temp;Humidity;BMP_temperature;BMP_pressure;BME280_temperature;BME280_humidity;BME280_pressure;Samples;Min_cycle;Max_cycle;Signal;HPM_P1;HPM_P2
2023/08/19 00:00:43;;;;;;;17.58;12.00;;;;;;;;;;5050656;28;20033;-69
2023/08/19 00:03:08;;;;;;;14.18;11.63;;;;;;;;;;5050366;28;20128;-69
2023/08/19 00:05:34;;;;;;;15.10;11.95;;;;;;;;;;5051680;28;20098;-68
2023/08/19 00:07:59;;;;;;;16.45;11.82;;;;;;;;;;5034056;28;20090;-68
2023/08/19 00:10:25;;;;;;;15.18;12.00;;;;;;;;;;5050976;28;20110;-69
2023/08/19 00:12:51;;;;;;;20.63;11.73;;;;;;;;;;5050944;28;20392;-69
2023/08/19 00:15:17;;;;;;;19.63;12.35;;;;;;;;;;5050911;28;20049;-69
2023/08/19 00:17:42;;;;;;;17.50;11.48;;;;;;;;;;5051575;28;20036;-70
2023/08/19 00:20:09;;;;;;;18.63;11.80;;;;;;;;;;5050541;28;20383;-69
2023/08/19 00:22:35;;;;;;;19.67;12.70;;;;;;;;;;5050498;28;20132;-69
2023/08/19 00:25:03;;;;;;;17.90;12.43;;;;;;;;;;5017672;28;20507;-68
2023/08/19 00:27:30;;;;;;;18.58;12.88;;;;;;;;;;5034199;28;20033;-69
2023/08/19 00:29:56;;;;;;;24.13;12.02;;;;;;;;;;5050728;28;20037;-69
2023/08/19 00:32:21;;;;;;;15.18;12.07;;;;;;;;;;5050424;28;20044;-69
2023/08/19 00:34:47;;;;;;;20.63;12.70;;;;;;;;;;5051724;28;20045;-69
2023/08/19 00:37:13;;;;;;;20.13;12.15;;;;;;;;;;5054343;28;20043;-69
2023/08/19 00:39:38;;;;;;;20.42;11.93;;;;;;;;;;5054267;28;20048;-68
2023/08/19 00:42:06;;;;;;;16.48;11.98;;;;;;;;;;5053988;28;20135;-69
2023/08/19 00:44:34;;;;;;;15.90;11.20;;;;;;;;;;5054039;28;20037;-68
2023/08/19 00:47:01;;;;;;;16.50;11.43;;;;;;;;;;5037307;28;20048;-68
2023/08/19 00:49:30;;;;;;;16.50;12.10;;;;;;;;;;5054155;28;20118;-69
2023/08/19 00:51:57;;;;;;;19.77;12.00;;;;;;;;;;5054302;28;20035;-69
2023/08/19 00:54:23;;;;;;;21.75;11.80;;;;;;;;;;5056299;28;20045;-69
2023/08/19 00:56:49;;;;;;;15.43;11.25;;;;;;;;;;5054369;28;20037;-69
2023/08/19 00:59:15;;;;;;;18.88;11.48;;;;;;;;;;5053593;28;20352;-69
2023/08/19 01:01:41;;;;;;;18.73;11.05;;;;;;;;;;5053463;28;20179;-69
2023/08/19 01:04:07;;;;;;;17.88;11.25;;;;;;;;;;5053788;28;20044;-69
2023/08/19 01:06:41;;;;;;;15.57;11.23;;;;;;;;;;5036866;28;20095;-69
2023/08/19 01:09:12;;;;;;;17.63;10.65;;;;;;;;;;5020389;28;20067;-69
2023/08/19 01:11:46;;;;;;;21.85;11.07;;;;;;;;;;5053420;28;20127;-68
2023/08/19 01:14:30;;;;;;;19.33;11.32;;;;;;;;;;5053299;28;20044;-69
2023/08/19 01:16:59;;;;;;;19.30;11.38;;;;;;;;;;5053383;28;20502;-69
2023/08/19 01:19:29;;;;;;;18.27;10.70;;;;;;;;;;5054254;28;20033;-69
2023/08/19 01:21:57;;;;;;;17.27;11.10;;;;;;;;;;5053184;28;20037;-69
2023/08/19 01:24:25;;;;;;;16.85;10.80;;;;;;;;;;5036470;28;20152;-69
2023/08/19 01:26:52;;;;;;;15.50;11.23;;;;;;;;;;5054185;28;20029;-71
2023/08/19 01:29:18;;;;;;;19.77;11.13;;;;;;;;;;5020078;28;20067;-69
2023/08/19 01:31:43;;;;;;;18.15;11.52;;;;;;;;;;5053941;28;20040;-69
2023/08/19 01:34:09;;;;;;;18.77;11.00;;;;;;;;;;5052855;28;20037;-69
2023/08/19 01:36:40;;;;;;;17.35;10.30;;;;;;;;;;5053018;28;20493;-69
2023/08/19 01:39:09;;;;;;;25.17;11.82;;;;;;;;;;5053998;28;20045;-69
2023/08/19 01:41:36;;;;;;;13.93;10.38;;;;;;;;;;5035894;28;20053;-68
2023/08/19 01:44:02;;;;;;;14.15;10.57;;;;;;;;;;5036140;28;20075;-69
2023/08/19 01:46:27;;;;;;;17.63;10.45;;;;;;;;;;5035775;28;20025;-69
2023/08/19 01:48:53;;;;;;;14.35;10.60;;;;;;;;;;5052556;28;20048;-69
2023/08/19 01:51:19;;;;;;;18.27;11.48;;;;;;;;;;5052485;28;20379;-69
2023/08/19 01:53:45;;;;;;;15.65;11.55;;;;;;;;;;5052330;28;20037;-68
2023/08/19 01:56:14;;;;;;;14.80;10.27;;;;;;;;;;5053367;28;20037;-68
2023/08/19 01:58:39;;;;;;;17.58;11.30;;;;;;;;;;5052664;28;20032;-69
2023/08/19 02:01:09;;;;;;;16.33;10.82;;;;;;;;;;5052742;28;20063;-68
2023/08/19 02:03:35;;;;;;;17.45;10.50;;;;;;;;;;5019290;28;20494;-68
2023/08/19 02:06:00;;;;;;;17.30;11.10;;;;;;;;;;5053491;28;20037;-69
2023/08/19 02:08:26;;;;;;;15.13;10.52;;;;;;;;;;5052462;28;20494;-69
2023/08/19 02:10:52;;;;;;;16.13;11.23;;;;;;;;;;5035873;28;20548;-69
2023/08/19 02:13:18;;;;;;;13.60;10.65;;;;;;;;;;5052364;28;20040;-68
2023/08/19 02:15:44;;;;;;;21.75;11.10;;;;;;;;;;5052250;28;20044;-69
2023/08/19 02:18:09;;;;;;;15.95;10.07;;;;;;;;;;5052016;28;20041;-69
2023/08/19 02:20:36;;;;;;;18.35;10.82;;;;;;;;;;5053123;28;20037;-68
2023/08/19 02:23:01;;;;;;;14.25;10.55;;;;;;;;;;5019146;28;20465;-68
2023/08/19 02:25:27;;;;;;;16.77;10.38;;;;;;;;;;5035557;28;20025;-69
2023/08/19 02:27:53;;;;;;;16.73;10.02;;;;;;;;;;5053208;28;20109;-69
2023/08/19 02:30:20;;;;;;;14.73;10.60;;;;;;;;;;5052047;28;20476;-69
2023/08/19 02:32:45;;;;;;;16.63;11.07;;;;;;;;;;5052690;28;20036;-69
2023/08/19 02:35:11;;;;;;;14.25;10.57;;;;;;;;;;5051430;28;20063;-69
2023/08/19 02:37:37;;;;;;;15.98;11.20;;;;;;;;;;5053836;28;20094;-68
2023/08/19 02:40:03;;;;;;;17.70;10.48;;;;;;;;;;5055022;28;20043;-69
2023/08/19 02:42:31;;;;;;;20.17;13.15;;;;;;;;;;5020914;28;20080;-69
2023/08/19 02:44:57;;;;;;;17.52;12.07;;;;;;;;;;5053479;28;20467;-69
2023/08/19 02:47:23;;;;;;;21.08;13.63;;;;;;;;;;5052388;28;20033;-69
2023/08/19 02:49:49;;;;;;;16.38;12.80;;;;;;;;;;5035594;28;20108;-70
2023/08/19 02:52:14;;;;;;;17.05;12.75;;;;;;;;;;5051977;28;20045;-68
2023/08/19 02:54:40;;;;;;;22.10;14.80;;;;;;;;;;5052544;28;20069;-68
2023/08/19 02:57:06;;;;;;;20.90;14.45;;;;;;;;;;5053660;28;20044;-68
2023/08/19 02:59:31;;;;;;;23.05;14.80;;;;;;;;;;5035181;28;20040;-69
2023/08/19 03:01:57;;;;;;;18.80;12.93;;;;;;;;;;5035336;28;20052;-69
2023/08/19 03:04:23;;;;;;;18.38;12.65;;;;;;;;;;5051875;28;20356;-69
2023/08/19 03:06:48;;;;;;;21.50;12.45;;;;;;;;;;5052163;28;20045;-69
2023/08/19 03:09:14;;;;;;;15.75;11.82;;;;;;;;;;5052514;28;20041;-69
2023/08/19 03:11:41;;;;;;;18.30;12.02;;;;;;;;;;5051240;28;20040;-68
2023/08/19 03:14:08;;;;;;;21.42;11.90;;;;;;;;;;5052083;28;20029;-68
2023/08/19 03:16:33;;;;;;;19.73;12.48;;;;;;;;;;5018466;28;20387;-68
2023/08/19 03:18:59;;;;;;;20.00;12.95;;;;;;;;;;5018572;28;20046;-68
2023/08/19 03:21:25;;;;;;;15.73;12.52;;;;;;;;;;5051388;28;20045;-69
2023/08/19 03:23:51;;;;;;;19.10;12.60;;;;;;;;;;5051001;28;20446;-68
2023/08/19 03:26:16;;;;;;;21.80;12.98;;;;;;;;;;5050882;28;20032;-68
2023/08/19 03:28:42;;;;;;;16.02;12.18;;;;;;;;;;5052113;28;20059;-68
2023/08/19 03:31:12;;;;;;;16.58;12.07;;;;;;;;;;5051127;28;20049;-68
2023/08/19 03:33:40;;;;;;;18.67;12.48;;;;;;;;;;5018483;28;20041;-68
2023/08/19 03:36:06;;;;;;;21.90;12.80;;;;;;;;;;5034754;28;20064;-69
2023/08/19 03:38:33;;;;;;;20.63;12.40;;;;;;;;;;5034799;28;20033;-68
2023/08/19 03:41:00;;;;;;;15.75;12.82;;;;;;;;;;5051003;28;20171;-68
2023/08/19 03:43:28;;;;;;;20.13;13.02;;;;;;;;;;5034806;28;20699;-68
2023/08/19 03:45:54;;;;;;;15.77;11.63;;;;;;;;;;5050904;28;20041;-69
2023/08/19 03:48:20;;;;;;;14.55;12.60;;;;;;;;;;5052003;28;20033;-68
2023/08/19 03:50:45;;;;;;;18.65;12.40;;;;;;;;;;5034249;28;20086;-68
2023/08/19 03:53:11;;;;;;;19.35;11.80;;;;;;;;;;5051182;28;20067;-70
2023/08/19 03:55:36;;;;;;;17.05;11.88;;;;;;;;;;5051729;28;20391;-69
2023/08/19 03:58:02;;;;;;;16.05;10.88;;;;;;;;;;5034442;28;20386;-69
2023/08/19 04:00:28;;;;;;;17.75;10.90;;;;;;;;;;5051146;28;20048;-68
2023/08/19 04:02:54;;;;;;;19.05;10.60;;;;;;;;;;5051709;28;20040;-68
2023/08/19 04:05:20;;;;;;;20.77;10.90;;;;;;;;;;5033971;28;20041;-68
2023/08/19 04:07:46;;;;;;;15.15;10.30;;;;;;;;;;5017751;28;20065;-68
2023/08/19 04:10:11;;;;;;;16.80;10.65;;;;;;;;;;5053925;28;20044;-68
2023/08/19 04:12:38;;;;;;;19.38;9.98;;;;;;;;;;5055939;28;20036;-68
2023/08/19 04:15:04;;;;;;;17.63;10.80;;;;;;;;;;5021607;28;20048;-69
2023/08/19 04:17:32;;;;;;;18.35;10.48;;;;;;;;;;5054639;28;20507;-68
2023/08/19 04:19:58;;;;;;;14.32;9.85;;;;;;;;;;5037877;28;20040;-69
2023/08/19 04:22:24;;;;;;;21.17;10.10;;;;;;;;;;5055244;28;20467;-69
2023/08/19 04:24:50;;;;;;;24.42;9.80;;;;;;;;;;5052008;28;20068;-68
2023/08/19 04:27:17;;;;;;;16.40;9.68;;;;;;;;;;5055170;28;20029;-69
2023/08/19 04:29:43;;;;;;;15.55;9.27;;;;;;;;;;5054456;28;20071;-68
2023/08/19 04:32:09;;;;;;;14.20;9.60;;;;;;;;;;5054383;28;20040;-68
2023/08/19 04:34:36;;;;;;;14.68;9.40;;;;;;;;;;5038245;28;20360;-68
2023/08/19 04:37:03;;;;;;;16.80;9.30;;;;;;;;;;5037459;28;20037;-68
2023/08/19 04:39:29;;;;;;;14.18;8.98;;;;;;;;;;5054197;28;20091;-68
2023/08/19 04:41:59;;;;;;;17.55;8.75;;;;;;;;;;5053679;28;20053;-68
2023/08/19 04:44:25;;;;;;;17.15;8.93;;;;;;;;;;5053936;28;20474;-68
2023/08/19 04:46:50;;;;;;;11.38;8.57;;;;;;;;;;5054787;28;20040;-68
2023/08/19 04:49:17;;;;;;;13.48;8.48;;;;;;;;;;5053958;28;20047;-69
2023/08/19 04:51:44;;;;;;;10.80;8.20;;;;;;;;;;5020869;28;20180;-68
2023/08/19 04:54:09;;;;;;;14.43;8.18;;;;;;;;;;5054143;28;20069;-69
2023/08/19 04:56:35;;;;;;;11.07;8.20;;;;;;;;;;5053981;28;20041;-69
2023/08/19 04:59:01;;;;;;;18.50;8.85;;;;;;;;;;5036948;28;20033;-68
2023/08/19 05:01:28;;;;;;;14.52;8.52;;;;;;;;;;5053801;28;20083;-68
2023/08/19 05:03:54;;;;;;;21.35;10.02;;;;;;;;;;5037161;28;20041;-69
2023/08/19 05:06:22;;;;;;;19.55;10.15;;;;;;;;;;5054635;28;20039;-69
2023/08/19 05:08:48;;;;;;;30.52;10.35;;;;;;;;;;5054509;28;20044;-68
2023/08/19 05:11:14;;;;;;;30.00;11.30;;;;;;;;;;5036677;28;20037;-68
2023/08/19 05:13:42;;;;;;;21.98;10.88;;;;;;;;;;5053719;28;20488;-69
2023/08/19 05:16:10;;;;;;;26.92;10.73;;;;;;;;;;5037939;28;20037;-69
2023/08/19 05:18:35;;;;;;;18.85;9.93;;;;;;;;;;5054901;28;20059;-70
2023/08/19 05:21:02;;;;;;;22.33;9.77;;;;;;;;;;5053639;28;20375;-69
2023/08/19 05:23:28;;;;;;;18.85;9.60;;;;;;;;;;5054479;28;20045;-69
2023/08/19 05:25:54;;;;;;;25.38;10.27;;;;;;;;;;5054295;28;20385;-69
2023/08/19 05:28:20;;;;;;;24.33;10.63;;;;;;;;;;5054087;28;20064;-68
2023/08/19 05:30:46;;;;;;;21.40;10.18;;;;;;;;;;5053926;28;20132;-68
2023/08/19 05:33:11;;;;;;;19.30;9.98;;;;;;;;;;5054390;28;20119;-69
2023/08/19 05:35:38;;;;;;;20.60;10.38;;;;;;;;;;5036259;28;20073;-69
2023/08/19 05:38:04;;;;;;;19.85;10.18;;;;;;;;;;5053941;28;20506;-68
2023/08/19 05:40:30;;;;;;;30.27;11.57;;;;;;;;;;5051596;28;20523;-69
2023/08/19 05:42:56;;;;;;;29.73;12.00;;;;;;;;;;5035233;28;20079;-68
2023/08/19 05:45:21;;;;;;;21.60;10.98;;;;;;;;;;5051664;28;20140;-68
2023/08/19 05:47:49;;;;;;;18.73;10.52;;;;;;;;;;5051626;28;20033;-70
2023/08/19 05:50:14;;;;;;;22.25;10.80;;;;;;;;;;5035215;28;20049;-69
2023/08/19 05:52:40;;;;;;;20.10;10.77;;;;;;;;;;5035038;28;20033;-69
2023/08/19 05:55:05;;;;;;;23.23;11.52;;;;;;;;;;5051842;28;20123;-69
2023/08/19 05:57:31;;;;;;;21.58;12.35;;;;;;;;;;5035326;28;20518;-69
2023/08/19 05:59:57;;;;;;;20.15;11.48;;;;;;;;;;5035109;28;20053;-69
2023/08/19 06:02:23;;;;;;;27.15;12.02;;;;;;;;;;5035051;28;20033;-68
2023/08/19 06:04:49;;;;;;;21.55;9.30;;;;;;;;;;5051547;28;20442;-69
2023/08/19 06:07:21;;;;;;;20.58;9.77;;;;;;;;;;5051674;28;20132;-69
2023/08/19 06:09:46;;;;;;;20.95;9.27;;;;;;;;;;5034658;28;20037;-68
2023/08/19 06:12:13;;;;;;;20.13;9.30;;;;;;;;;;5048052;28;20045;-69
2023/08/19 06:14:38;;;;;;;26.17;9.68;;;;;;;;;;5035489;28;20113;-69
2023/08/19 06:17:04;;;;;;;17.58;8.50;;;;;;;;;;5053071;28;20489;-69
2023/08/19 06:19:30;;;;;;;24.98;8.90;;;;;;;;;;5035775;28;20048;-69
2023/08/19 06:21:55;;;;;;;24.00;10.40;;;;;;;;;;5035340;28;20045;-69
2023/08/19 06:24:22;;;;;;;17.70;9.27;;;;;;;;;;5054205;28;20078;-69
2023/08/19 06:26:48;;;;;;;20.55;9.82;;;;;;;;;;5071074;28;20045;-68
2023/08/19 06:29:14;;;;;;;23.08;9.93;;;;;;;;;;5071176;28;20044;-69
2023/08/19 06:31:40;;;;;;;16.90;9.93;;;;;;;;;;5071076;28;20182;-69
2023/08/19 06:34:05;;;;;;;17.23;9.50;;;;;;;;;;5070717;28;20052;-69
2023/08/19 06:36:33;;;;;;;18.90;9.02;;;;;;;;;;5054559;28;20311;-73
2023/08/19 06:39:10;;;;;;;22.40;10.35;;;;;;;;;;5070976;28;20048;-69
2023/08/19 06:41:39;;;;;;;21.25;9.15;;;;;;;;;;5037290;28;20048;-69
2023/08/19 06:44:05;;;;;;;;;;;;;;;;;;5037772;28;20044;-70
2023/08/19 06:46:31;;;;;;;19.73;8.70;;;;;;;;;;5070790;28;19938;-69
2023/08/19 06:48:58;;;;;;;10.45;7.80;;;;;;;;;;5037598;28;20498;-70
2023/08/19 06:51:24;;;;;;;15.25;7.10;;;;;;;;;;5055669;28;20035;-69
2023/08/19 06:53:50;;;;;;;16.23;8.40;;;;;;;;;;5071964;28;20043;-69
2023/08/19 06:56:19;;;;;;;11.85;7.82;;;;;;;;;;5035069;28;20060;-69
2023/08/19 06:58:50;;;;;;;15.20;8.20;;;;;;;;;;5052575;28;20051;-69
2023/08/19 07:01:22;;;;;;;15.55;7.53;;;;;;;;;;5034899;28;20387;-69
2023/08/19 07:03:50;;;;;;;16.83;8.45;;;;;;;;;;5052343;28;20033;-69
2023/08/19 07:06:17;;;;;;;14.10;8.90;;;;;;;;;;5034702;28;20471;-69
2023/08/19 07:08:43;;;;;;;17.20;8.25;;;;;;;;;;5051840;28;20383;-69
2023/08/19 07:11:09;;;;;;;14.57;7.90;;;;;;;;;;5052010;28;20029;-69
2023/08/19 07:13:36;;;;;;;15.10;9.05;;;;;;;;;;5051081;28;20059;-69
2023/08/19 07:16:03;;;;;;;19.50;7.68;;;;;;;;;;5051935;28;20045;-69
2023/08/19 07:18:33;;;;;;;17.67;8.57;;;;;;;;;;5034299;28;20051;-69
2023/08/19 07:20:59;;;;;;;12.25;8.23;;;;;;;;;;5034440;28;20039;-69
2023/08/19 07:23:25;;;;;;;11.75;7.35;;;;;;;;;;5051952;28;20127;-69
2023/08/19 07:25:50;;;;;;;12.15;6.65;;;;;;;;;;5052472;28;20028;-69
2023/08/19 07:28:19;;;;;;;13.23;6.55;;;;;;;;;;5052771;28;20090;-69
2023/08/19 07:30:45;;;;;;;16.65;7.90;;;;;;;;;;5051165;28;20045;-70
2023/08/19 07:33:11;;;;;;;11.43;6.57;;;;;;;;;;5017844;28;20186;-70
2023/08/19 07:35:38;;;;;;;14.82;7.15;;;;;;;;;;5051664;28;20045;-71
2023/08/19 07:38:04;;;;;;;9.43;5.32;;;;;;;;;;5052077;28;20040;-70
2023/08/19 07:40:30;;;;;;;10.20;5.47;;;;;;;;;;5034057;28;20037;-69
2023/08/19 07:42:56;;;;;;;9.48;5.20;;;;;;;;;;5051595;28;20114;-70
2023/08/19 07:45:21;;;;;;;13.65;5.60;;;;;;;;;;5054511;28;20117;-70
2023/08/19 07:47:47;;;;;;;11.80;6.40;;;;;;;;;;5038624;28;20044;-70
2023/08/19 07:50:13;;;;;;;9.80;5.40;;;;;;;;;;5055692;28;20564;-70
2023/08/19 07:52:38;;;;;;;16.95;6.47;;;;;;;;;;5055714;28;20033;-70
2023/08/19 07:55:04;;;;;;;16.45;6.22;;;;;;;;;;5055482;28;20502;-70
2023/08/19 07:57:30;;;;;;;15.27;6.00;;;;;;;;;;5054940;28;20040;-70
2023/08/19 07:59:55;;;;;;;14.68;6.55;;;;;;;;;;5055765;28;20483;-69
2023/08/19 08:02:21;;;;;;;18.63;7.00;;;;;;;;;;5054943;28;20048;-70
2023/08/19 08:04:47;;;;;;;11.70;7.10;;;;;;;;;;5055581;28;20418;-69
2023/08/19 08:07:13;;;;;;;12.10;6.35;;;;;;;;;;5055817;28;20048;-70
2023/08/19 08:09:38;;;;;;;15.55;6.45;;;;;;;;;;5037773;28;20074;-70
2023/08/19 08:12:04;;;;;;;13.93;6.22;;;;;;;;;;5055475;28;20029;-70
2023/08/19 08:14:30;;;;;;;11.57;5.97;;;;;;;;;;5054378;28;20041;-70
2023/08/19 08:16:56;;;;;;;12.48;5.65;;;;;;;;;;5054270;28;20110;-70
2023/08/19 08:19:28;;;;;;;17.15;6.20;;;;;;;;;;5055581;28;20033;-71
2023/08/19 08:21:54;;;;;;;12.95;5.78;;;;;;;;;;5056056;28;20471;-70
2023/08/19 08:24:23;;;;;;;18.88;5.95;;;;;;;;;;5037892;28;20124;-71
2023/08/19 08:26:48;;;;;;;11.75;5.93;;;;;;;;;;5054299;28;20040;-70
2023/08/19 08:29:16;;;;;;;9.43;4.65;;;;;;;;;;5055117;28;20159;-71
2023/08/19 08:31:41;;;;;;;18.48;4.93;;;;;;;;;;5053852;28;20040;-71
2023/08/19 08:34:07;;;;;;;9.80;5.03;;;;;;;;;;5037397;28;20036;-71
2023/08/19 08:36:32;;;;;;;12.70;4.88;;;;;;;;;;5054940;28;20052;-70
2023/08/19 08:38:58;;;;;;;11.73;5.10;;;;;;;;;;5054834;28;20033;-70
2023/08/19 08:41:25;;;;;;;13.50;5.40;;;;;;;;;;5037068;28;20053;-71
2023/08/19 08:43:52;;;;;;;10.23;5.75;;;;;;;;;;5054184;28;20029;-71
2023/08/19 08:46:19;;;;;;;18.27;6.22;;;;;;;;;;5054665;28;20186;-70
2023/08/19 08:48:45;;;;;;;8.55;5.75;;;;;;;;;;5054586;28;20130;-70
2023/08/19 08:51:12;;;;;;;14.93;6.00;;;;;;;;;;5037083;28;20059;-70
2023/08/19 08:53:38;;;;;;;11.13;5.72;;;;;;;;;;5054858;28;20044;-70
2023/08/19 08:56:06;;;;;;;15.18;5.70;;;;;;;;;;5052435;28;20048;-70
2023/08/19 08:58:33;;;;;;;9.68;4.80;;;;;;;;;;5037467;28;20033;-70
2023/08/19 09:01:00;;;;;;;9.85;4.70;;;;;;;;;;5036975;28;20110;-70
2023/08/19 09:03:28;;;;;;;12.48;4.50;;;;;;;;;;5054480;28;20048;-70
2023/08/19 09:05:56;;;;;;;10.65;4.20;;;;;;;;;;5036936;28;20040;-71
2023/08/19 09:08:27;;;;;;;11.27;4.40;;;;;;;;;;5053667;28;20047;-71
2023/08/19 09:10:52;;;;;;;8.32;3.88;;;;;;;;;;5053372;28;20051;-71
2023/08/19 09:13:21;;;;;;;10.07;4.03;;;;;;;;;;5053132;28;20366;-71
2023/08/19 09:15:46;;;;;;;10.77;3.83;;;;;;;;;;5054217;28;20425;-71
2023/08/19 09:18:12;;;;;;;6.80;3.53;;;;;;;;;;5053135;28;20271;-71
2023/08/19 09:20:38;;;;;;;8.82;3.70;;;;;;;;;;5054000;28;20052;-71
2023/08/19 09:23:08;;;;;;;7.65;3.45;;;;;;;;;;5036327;28;20127;-71
2023/08/19 09:25:33;;;;;;;8.27;3.95;;;;;;;;;;5053239;28;20045;-70
2023/08/19 09:27:59;;;;;;;8.88;3.70;;;;;;;;;;5053216;28;20033;-70
2023/08/19 09:30:34;;;;;;;6.95;3.70;;;;;;;;;;5054201;28;20037;-71
2023/08/19 09:33:00;;;;;;;6.53;3.40;;;;;;;;;;5054004;28;20028;-70
2023/08/19 09:35:33;;;;;;;6.13;3.50;;;;;;;;;;5053003;28;20048;-70
2023/08/19 09:37:59;;;;;;;8.52;3.60;;;;;;;;;;5054033;28;20035;-71
2023/08/19 09:40:25;;;;;;;6.40;3.38;;;;;;;;;;5053422;28;20067;-72
2023/08/19 09:42:52;;;;;;;7.50;3.53;;;;;;;;;;5051587;28;20052;-71
2023/08/19 09:45:19;;;;;;;7.55;3.50;;;;;;;;;;5051764;28;20053;-71
2023/08/19 09:47:51;;;;;;;10.18;3.97;;;;;;;;;;5051599;28;20483;-72
2023/08/19 09:50:22;;;;;;;12.43;3.92;;;;;;;;;;5018884;28;20060;-71
2023/08/19 09:52:58;;;;;;;8.07;3.80;;;;;;;;;;5051902;28;20125;-70
2023/08/19 09:55:25;;;;;;;18.50;3.95;;;;;;;;;;5052133;28;20071;-71
2023/08/19 09:57:53;;;;;;;7.78;3.70;;;;;;;;;;5034934;28;20390;-71
2023/08/19 10:00:18;;;;;;;10.57;4.03;;;;;;;;;;5034767;28;20037;-71
2023/08/19 10:02:44;;;;;;;10.70;4.22;;;;;;;;;;5034769;28;20045;-70
2023/08/19 10:05:11;;;;;;;11.18;4.20;;;;;;;;;;5034843;28;20136;-71
2023/08/19 10:07:38;;;;;;;11.70;3.65;;;;;;;;;;5051251;28;20045;-71
2023/08/19 10:10:05;;;;;;;7.70;3.83;;;;;;;;;;5018035;28;20407;-72
2023/08/19 10:12:33;;;;;;;7.32;3.30;;;;;;;;;;5018390;28;20025;-70
2023/08/19 10:14:59;;;;;;;9.02;3.42;;;;;;;;;;5035724;28;20041;-71
2023/08/19 10:17:25;;;;;;;4.45;3.13;;;;;;;;;;5052262;28;20375;-71
2023/08/19 10:19:58;;;;;;;6.63;3.40;;;;;;;;;;5035391;28;20070;-71
2023/08/19 10:22:25;;;;;;;7.05;3.40;;;;;;;;;;5053126;28;20025;-71
2023/08/19 10:24:51;;;;;;;7.07;3.13;;;;;;;;;;5052468;28;20581;-71
2023/08/19 10:27:18;;;;;;;7.72;3.03;;;;;;;;;;5052802;28;20025;-71
2023/08/19 10:29:48;;;;;;;5.80;2.88;;;;;;;;;;5051850;28;20071;-71
2023/08/19 10:32:29;;;;;;;5.45;3.08;;;;;;;;;;5051847;28;20124;-71
2023/08/19 10:35:04;;;;;;;8.98;2.90;;;;;;;;;;5051560;28;20037;-71
2023/08/19 10:37:30;;;;;;;7.95;2.88;;;;;;;;;;5051933;28;20064;-72
2023/08/19 10:40:11;;;;;;;8.05;2.78;;;;;;;;;;5034903;28;20083;-72
2023/08/19 10:42:37;;;;;;;7.47;3.08;;;;;;;;;;5052170;28;20143;-71
2023/08/19 10:45:05;;;;;;;5.53;3.03;;;;;;;;;;5052374;28;20102;-71
2023/08/19 10:47:31;;;;;;;6.45;2.92;;;;;;;;;;5052553;28;20082;-71
2023/08/19 10:50:17;;;;;;;7.40;2.95;;;;;;;;;;5051486;28;20428;-71
2023/08/19 10:53:01;;;;;;;8.68;3.13;;;;;;;;;;5051807;28;20127;-70
2023/08/19 10:55:27;;;;;;;11.00;3.45;;;;;;;;;;5052306;28;20555;-70
2023/08/19 10:57:56;;;;;;;8.27;3.25;;;;;;;;;;5051129;28;20127;-70
2023/08/19 11:00:23;;;;;;;11.48;3.83;;;;;;;;;;5051155;28;20064;-70
2023/08/19 11:02:49;;;;;;;8.70;3.17;;;;;;;;;;5052115;28;20036;-70
2023/08/19 11:05:23;;;;;;;3.67;2.85;;;;;;;;;;5052038;28;20497;-70
2023/08/19 11:07:50;;;;;;;7.00;3.33;;;;;;;;;;5051086;28;20055;-71
2023/08/19 11:10:15;;;;;;;4.82;3.30;;;;;;;;;;5034446;28;20082;-70
2023/08/19 11:12:44;;;;;;;9.40;3.40;;;;;;;;;;5052080;28;20411;-70
2023/08/19 11:15:10;;;;;;;8.77;3.33;;;;;;;;;;5051867;28;20063;-70
2023/08/19 11:17:35;;;;;;;12.50;3.88;;;;;;;;;;5051972;28;20076;-69
2023/08/19 11:20:10;;;;;;;6.90;3.70;;;;;;;;;;5051400;28;20048;-70
2023/08/19 11:22:43;;;;;;;9.23;4.07;;;;;;;;;;5051909;28;20056;-69
2023/08/19 11:25:09;;;;;;;9.43;4.00;;;;;;;;;;5051625;28;20049;-70
2023/08/19 11:27:35;;;;;;;8.07;4.32;;;;;;;;;;5051677;28;20051;-69
2023/08/19 11:30:02;;;;;;;17.13;4.57;;;;;;;;;;5051933;28;20041;-70
2023/08/19 11:32:30;;;;;;;9.57;4.30;;;;;;;;;;5052005;28;20033;-70
2023/08/19 11:34:56;;;;;;;10.40;4.50;;;;;;;;;;5051744;28;20372;-69
2023/08/19 11:37:21;;;;;;;10.63;4.18;;;;;;;;;;5051514;28;20040;-70
2023/08/19 11:39:47;;;;;;;7.30;4.45;;;;;;;;;;5051541;28;20025;-69
2023/08/19 11:42:13;;;;;;;5.43;4.63;;;;;;;;;;5050355;28;20072;-69
2023/08/19 11:44:41;;;;;;;7.18;4.45;;;;;;;;;;5051628;28;20478;-69
2023/08/19 11:47:07;;;;;;;8.10;4.78;;;;;;;;;;5051879;28;20044;-69
2023/08/19 11:49:32;;;;;;;10.90;5.18;;;;;;;;;;5052208;28;20033;-69
2023/08/19 11:51:59;;;;;;;9.50;4.90;;;;;;;;;;5051902;28;20094;-69
2023/08/19 11:54:24;;;;;;;10.82;4.90;;;;;;;;;;5051890;28;20067;-69
2023/08/19 11:56:51;;;;;;;9.43;4.95;;;;;;;;;;5051578;28;20033;-69
2023/08/19 11:59:18;;;;;;;13.48;5.57;;;;;;;;;;5051481;28;20037;-70
2023/08/19 12:01:47;;;;;;;8.65;6.18;;;;;;;;;;5050561;28;20360;-69
2023/08/19 12:04:17;;;;;;;11.35;5.55;;;;;;;;;;5051509;28;20041;-70
2023/08/19 12:06:47;;;;;;;11.48;5.40;;;;;;;;;;5050341;28;20387;-70
2023/08/19 12:09:13;;;;;;;12.40;5.38;;;;;;;;;;5051608;28;20101;-69
2023/08/19 12:11:41;;;;;;;10.90;5.40;;;;;;;;;;5051518;28;20032;-69
2023/08/19 12:14:07;;;;;;;11.38;5.70;;;;;;;;;;5050696;28;20037;-69
2023/08/19 12:16:33;;;;;;;14.88;6.22;;;;;;;;;;5050667;28;20048;-70
2023/08/19 12:18:59;;;;;;;16.05;6.32;;;;;;;;;;5049477;28;20057;-69
2023/08/19 12:21:25;;;;;;;7.78;6.10;;;;;;;;;;5049537;28;20056;-69
2023/08/19 12:23:52;;;;;;;10.35;6.38;;;;;;;;;;5049518;28;20041;-69
2023/08/19 12:26:19;;;;;;;19.00;8.30;;;;;;;;;;5016401;28;20049;-69
2023/08/19 12:28:45;;;;;;;14.48;7.15;;;;;;;;;;5032941;28;20073;-69
2023/08/19 12:31:13;;;;;;;15.05;6.50;;;;;;;;;;5018405;28;20041;-69
2023/08/19 12:33:42;;;;;;;11.35;5.68;;;;;;;;;;5033067;28;20037;-69
2023/08/19 12:36:09;;;;;;;10.05;5.28;;;;;;;;;;5001047;28;20692;-70
2023/08/19 12:38:35;;;;;;;12.55;5.80;;;;;;;;;;5016885;28;20140;-69
2023/08/19 12:41:01;;;;;;;14.20;5.75;;;;;;;;;;4996879;28;20061;-69
2023/08/19 12:43:27;;;;;;;9.10;5.35;;;;;;;;;;5013264;28;20050;-69
2023/08/19 12:45:52;;;;;;;10.93;5.80;;;;;;;;;;4996748;28;20068;-69
2023/08/19 12:48:18;;;;;;;11.70;5.72;;;;;;;;;;4980834;28;20392;-69
2023/08/19 12:50:44;;;;;;;12.95;6.05;;;;;;;;;;5013062;28;20102;-68
2023/08/19 12:53:10;;;;;;;14.52;6.15;;;;;;;;;;5000105;28;20049;-69
2023/08/19 12:55:36;;;;;;;12.43;5.60;;;;;;;;;;5016698;28;20451;-70
2023/08/19 12:58:04;;;;;;;10.05;6.22;;;;;;;;;;5016612;28;20033;-69
2023/08/19 13:00:29;;;;;;;9.68;5.88;;;;;;;;;;5032930;28;20432;-69
2023/08/19 13:02:58;;;;;;;12.65;5.63;;;;;;;;;;5032726;28;20392;-69
2023/08/19 13:05:24;;;;;;;11.32;6.10;;;;;;;;;;5048801;28;20080;-69
2023/08/19 13:07:50;;;;;;;12.45;5.90;;;;;;;;;;5035926;28;20468;-69
2023/08/19 13:10:15;;;;;;;13.65;6.28;;;;;;;;;;5052520;28;20575;-69
2023/08/19 13:12:42;;;;;;;12.90;6.10;;;;;;;;;;5054075;28;20041;-69
2023/08/19 13:15:08;;;;;;;8.73;5.85;;;;;;;;;;5054577;28;20124;-70
2023/08/19 13:17:35;;;;;;;11.88;6.63;;;;;;;;;;5053500;28;20048;-69
2023/08/19 13:20:01;;;;;;;11.82;5.72;;;;;;;;;;5020152;28;20048;-69
2023/08/19 13:22:27;;;;;;;10.65;6.30;;;;;;;;;;5053276;28;20494;-69
2023/08/19 13:24:52;;;;;;;7.80;5.68;;;;;;;;;;5036521;28;20048;-70
2023/08/19 13:27:19;;;;;;;9.52;5.43;;;;;;;;;;5053920;28;20055;-69
2023/08/19 13:29:45;;;;;;;8.95;5.80;;;;;;;;;;5053096;28;20170;-68
2023/08/19 13:32:12;;;;;;;9.02;5.82;;;;;;;;;;5053780;28;20471;-69
2023/08/19 13:34:38;;;;;;;11.27;5.95;;;;;;;;;;5053195;28;20033;-69
2023/08/19 13:37:06;;;;;;;11.43;6.05;;;;;;;;;;5036437;28;20037;-69
2023/08/19 13:39:35;;;;;;;10.55;5.70;;;;;;;;;;5036154;28;20470;-69
2023/08/19 13:42:01;;;;;;;11.25;5.65;;;;;;;;;;5035337;28;20147;-69
2023/08/19 13:44:27;;;;;;;8.23;5.57;;;;;;;;;;5053899;28;20029;-69
2023/08/19 13:46:53;;;;;;;11.90;6.30;;;;;;;;;;5053776;28;20095;-68
2023/08/19 13:49:19;;;;;;;9.00;5.90;;;;;;;;;;5053758;28;20036;-68
2023/08/19 13:51:46;;;;;;;11.52;6.28;;;;;;;;;;5052525;28;20041;-72
2023/08/19 13:54:12;;;;;;;7.40;5.65;;;;;;;;;;5052788;28;20317;-69
2023/08/19 13:56:39;;;;;;;12.80;5.88;;;;;;;;;;5036360;28;20132;-69
2023/08/19 13:59:05;;;;;;;8.23;5.88;;;;;;;;;;5036030;28;20040;-69
2023/08/19 14:01:31;;;;;;;9.80;6.20;;;;;;;;;;5053962;28;20033;-69
2023/08/19 14:03:56;;;;;;;15.93;6.35;;;;;;;;;;5053821;28;20033;-69
2023/08/19 14:06:22;;;;;;;13.13;5.95;;;;;;;;;;5053357;28;20049;-70
2023/08/19 14:08:48;;;;;;;8.82;5.90;;;;;;;;;;5035481;28;20037;-69
2023/08/19 14:11:14;;;;;;;10.75;5.90;;;;;;;;;;5053159;28;20047;-68
2023/08/19 14:13:41;;;;;;;18.02;6.53;;;;;;;;;;5052525;28;20091;-69
2023/08/19 14:16:07;;;;;;;10.90;6.10;;;;;;;;;;5035781;28;20463;-69
2023/08/19 14:18:33;;;;;;;11.90;6.40;;;;;;;;;;5052025;28;20119;-69
2023/08/19 14:20:59;;;;;;;10.40;6.25;;;;;;;;;;5053033;28;20067;-69
2023/08/19 14:23:24;;;;;;;11.77;6.13;;;;;;;;;;5019242;28;20029;-69
2023/08/19 14:25:50;;;;;;;12.10;6.68;;;;;;;;;;5051803;28;20440;-68